TUI7GT EDDS-EDDH
Flight info
| Callsign | TUI7GT |
|---|---|
| Flight time | 0h 51m |
| Altitude | 33000 |
| Route | OKIBA4B/25 OKIBA N851 RIMKI Z99 LOHRE DCT MASEK DCT ELNAT P605 NOLGO NOLGO6A |
| Aircraft | B738/M-SDE2E3FGHIRWXY/LB1 |
Departure
| Time | 2026-05-05 18:10 |
|---|---|
| Airport | Stuttgart Airport (EDDS) |
Arrival
| Time | 2026-05-05 19:01 |
|---|---|
| Airport | Hamburg Helmut Schmidt Airport (EDDH) |
| Time | Latitude | Longitude | Altitude | Speed | Heading |
|---|---|---|---|---|---|
| 2026-05-05 17:28 | 48.68940 | 9.19649 | 1305 ft | 0 kts | 345° |
| 2026-05-05 17:56 | 48.68930 | 9.19652 | 1304 ft | 2 kts | 353° |
| 2026-05-05 17:56 | 48.68916 | 9.19657 | 1304 ft | 2 kts | 341° |
| 2026-05-05 17:57 | 48.68901 | 9.19660 | 1303 ft | 2 kts | 3° |
| 2026-05-05 17:57 | 48.68887 | 9.19658 | 1303 ft | 2 kts | 15° |
| 2026-05-05 17:57 | 48.68873 | 9.19649 | 1303 ft | 2 kts | 30° |
| 2026-05-05 17:57 | 48.68861 | 9.19636 | 1303 ft | 2 kts | 45° |
| 2026-05-05 17:58 | 48.68852 | 9.19619 | 1304 ft | 2 kts | 59° |
| 2026-05-05 17:58 | 48.68846 | 9.19601 | 1304 ft | 0 kts | 72° |
| 2026-05-05 17:58 | 48.68844 | 9.19591 | 1305 ft | 0 kts | 74° |
| 2026-05-05 18:01 | 48.68845 | 9.19592 | 1305 ft | 0 kts | 74° |
| 2026-05-05 18:02 | 48.68852 | 9.19629 | 1304 ft | 5 kts | 71° |
| 2026-05-05 18:02 | 48.68867 | 9.19702 | 1301 ft | 8 kts | 73° |
| 2026-05-05 18:02 | 48.68881 | 9.19780 | 1300 ft | 6 kts | 78° |
| 2026-05-05 18:02 | 48.68865 | 9.19839 | 1298 ft | 6 kts | 130° |
| 2026-05-05 18:03 | 48.68828 | 9.19901 | 1295 ft | 9 kts | 127° |
| 2026-05-05 18:03 | 48.68831 | 9.20004 | 1292 ft | 11 kts | 75° |
| 2026-05-05 18:03 | 48.68856 | 9.20134 | 1288 ft | 14 kts | 74° |
| 2026-05-05 18:03 | 48.68889 | 9.20306 | 1281 ft | 19 kts | 73° |
| 2026-05-05 18:04 | 48.68928 | 9.20508 | 1274 ft | 21 kts | 74° |
| 2026-05-05 18:04 | 48.68969 | 9.20726 | 1269 ft | 21 kts | 73° |
| 2026-05-05 18:04 | 48.69011 | 9.20948 | 1260 ft | 21 kts | 73° |
| 2026-05-05 18:04 | 48.69051 | 9.21159 | 1256 ft | 20 kts | 74° |
| 2026-05-05 18:05 | 48.69088 | 9.21354 | 1251 ft | 18 kts | 73° |
| 2026-05-05 18:05 | 48.69122 | 9.21531 | 1247 ft | 17 kts | 73° |
| 2026-05-05 18:05 | 48.69155 | 9.21702 | 1243 ft | 16 kts | 75° |
| 2026-05-05 18:05 | 48.69188 | 9.21877 | 1239 ft | 17 kts | 73° |
| 2026-05-05 18:06 | 48.69222 | 9.22057 | 1235 ft | 18 kts | 73° |
| 2026-05-05 18:06 | 48.69245 | 9.22177 | 1232 ft | 18 kts | 74° |
| 2026-05-05 18:06 | 48.69294 | 9.22437 | 1225 ft | 19 kts | 74° |
| 2026-05-05 18:06 | 48.69333 | 9.22638 | 1220 ft | 20 kts | 74° |
| 2026-05-05 18:07 | 48.69373 | 9.22853 | 1214 ft | 20 kts | 73° |
| 2026-05-05 18:07 | 48.69410 | 9.23054 | 1208 ft | 19 kts | 74° |
| 2026-05-05 18:07 | 48.69445 | 9.23232 | 1205 ft | 16 kts | 73° |
| 2026-05-05 18:07 | 48.69478 | 9.23408 | 1200 ft | 18 kts | 73° |
| 2026-05-05 18:08 | 48.69516 | 9.23605 | 1195 ft | 20 kts | 74° |
| 2026-05-05 18:08 | 48.69553 | 9.23801 | 1192 ft | 18 kts | 73° |
| 2026-05-05 18:08 | 48.69587 | 9.23981 | 1189 ft | 17 kts | 74° |
| 2026-05-05 18:08 | 48.69609 | 9.24153 | 1186 ft | 15 kts | 98° |
| 2026-05-05 18:09 | 48.69546 | 9.24260 | 1184 ft | 12 kts | 147° |
| 2026-05-05 18:09 | 48.69479 | 9.24323 | 1183 ft | 10 kts | 157° |
| 2026-05-05 18:09 | 48.69410 | 9.24342 | 1182 ft | 10 kts | 188° |
| 2026-05-05 18:09 | 48.69378 | 9.24255 | 1183 ft | 13 kts | 254° |
| 2026-05-05 18:10 | 48.69285 | 9.23765 | 1192 ft | 82 kts | 253° |
| 2026-05-05 18:10 | 48.69069 | 9.22623 | 1221 ft | 141 kts | 253° |
| 2026-05-05 18:10 | 48.68754 | 9.20952 | 1370 ft | 177 kts | 253° |
| 2026-05-05 18:10 | 48.68440 | 9.19179 | 2031 ft | 179 kts | 253° |
| 2026-05-05 18:11 | 48.68074 | 9.17378 | 2642 ft | 186 kts | 252° |
| 2026-05-05 18:11 | 48.67680 | 9.15418 | 2940 ft | 205 kts | 253° |
| 2026-05-05 18:11 | 48.67260 | 9.13201 | 3083 ft | 234 kts | 252° |
| 2026-05-05 18:11 | 48.66851 | 9.10788 | 3790 ft | 241 kts | 261° |
| 2026-05-05 18:12 | 48.66983 | 9.08238 | 4410 ft | 256 kts | 285° |
| 2026-05-05 18:12 | 48.67957 | 9.05936 | 5173 ft | 266 kts | 317° |
| 2026-05-05 18:12 | 48.69588 | 9.04709 | 6006 ft | 273 kts | 347° |
| 2026-05-05 18:12 | 48.71510 | 9.04880 | 6671 ft | 287 kts | 16° |
| 2026-05-05 18:13 | 48.73352 | 9.05932 | 7519 ft | 287 kts | 18° |
| 2026-05-05 18:13 | 48.75267 | 9.06960 | 8108 ft | 297 kts | 17° |
| 2026-05-05 18:13 | 48.77201 | 9.07970 | 8945 ft | 297 kts | 17° |
| 2026-05-05 18:13 | 48.79147 | 9.08998 | 9614 ft | 302 kts | 18° |
| 2026-05-05 18:14 | 48.81132 | 9.10047 | 10255 ft | 310 kts | 18° |
| 2026-05-05 18:14 | 48.83257 | 9.11172 | 10389 ft | 335 kts | 18° |
| 2026-05-05 18:14 | 48.85518 | 9.12372 | 10884 ft | 347 kts | 19° |
| 2026-05-05 18:14 | 48.87812 | 9.13591 | 11434 ft | 357 kts | 19° |
| 2026-05-05 18:15 | 48.90153 | 9.14837 | 12118 ft | 360 kts | 19° |
| 2026-05-05 18:15 | 48.92534 | 9.16106 | 12712 ft | 365 kts | 19° |
| 2026-05-05 18:15 | 48.94892 | 9.17365 | 13387 ft | 368 kts | 19° |
| 2026-05-05 18:15 | 48.97343 | 9.18674 | 13737 ft | 378 kts | 19° |
| 2026-05-05 18:16 | 48.99771 | 9.19972 | 13823 ft | 372 kts | 19° |
| 2026-05-05 18:16 | 49.02183 | 9.21261 | 13829 ft | 370 kts | 19° |
| 2026-05-05 18:16 | 49.04602 | 9.22556 | 14186 ft | 378 kts | 20° |
| 2026-05-05 18:16 | 49.06832 | 9.23673 | 14983 ft | 376 kts | 14° |
| 2026-05-05 18:17 | 49.09296 | 9.24301 | 15425 ft | 384 kts | 6° |
| 2026-05-05 18:17 | 49.12191 | 9.24710 | 16275 ft | 383 kts | 6° |
| 2026-05-05 18:17 | 49.14787 | 9.25141 | 16729 ft | 390 kts | 7° |
| 2026-05-05 18:17 | 49.17461 | 9.25635 | 17388 ft | 391 kts | 7° |
| 2026-05-05 18:18 | 49.20054 | 9.26123 | 17837 ft | 396 kts | 7° |
| 2026-05-05 18:18 | 49.22791 | 9.26644 | 18423 ft | 398 kts | 7° |
| 2026-05-05 18:18 | 49.25490 | 9.27163 | 18934 ft | 401 kts | 7° |
| 2026-05-05 18:18 | 49.28203 | 9.27688 | 19439 ft | 404 kts | 7° |
| 2026-05-05 18:19 | 49.30859 | 9.28205 | 19914 ft | 407 kts | 7° |
| 2026-05-05 18:19 | 49.33537 | 9.28727 | 20373 ft | 410 kts | 7° |
| 2026-05-05 18:19 | 49.35830 | 9.29174 | 20718 ft | 413 kts | 7° |
| 2026-05-05 18:19 | 49.38681 | 9.29732 | 21189 ft | 415 kts | 7° |
| 2026-05-05 18:20 | 49.41537 | 9.30291 | 21628 ft | 418 kts | 7° |
| 2026-05-05 18:20 | 49.44378 | 9.30848 | 22025 ft | 422 kts | 7° |
| 2026-05-05 18:20 | 49.47223 | 9.31407 | 22430 ft | 424 kts | 7° |
| 2026-05-05 18:20 | 49.50103 | 9.31973 | 22838 ft | 426 kts | 7° |
| 2026-05-05 18:21 | 49.52980 | 9.32540 | 23217 ft | 429 kts | 7° |
| 2026-05-05 18:21 | 49.55935 | 9.33122 | 23588 ft | 432 kts | 7° |
| 2026-05-05 18:21 | 49.58849 | 9.33698 | 23937 ft | 435 kts | 7° |
| 2026-05-05 18:21 | 49.61837 | 9.34289 | 24313 ft | 437 kts | 7° |
| 2026-05-05 18:22 | 49.64772 | 9.34870 | 24594 ft | 441 kts | 7° |
| 2026-05-05 18:22 | 49.67740 | 9.35460 | 24950 ft | 442 kts | 7° |
| 2026-05-05 18:22 | 49.70832 | 9.36074 | 25264 ft | 445 kts | 7° |
| 2026-05-05 18:22 | 49.73899 | 9.36683 | 25577 ft | 448 kts | 7° |
| 2026-05-05 18:23 | 49.76975 | 9.37295 | 25899 ft | 449 kts | 7° |
| 2026-05-05 18:23 | 49.79934 | 9.37884 | 26015 ft | 449 kts | 7° |
| 2026-05-05 18:23 | 49.82995 | 9.38495 | 26305 ft | 452 kts | 7° |
| 2026-05-05 18:23 | 49.86115 | 9.39119 | 26572 ft | 455 kts | 7° |
| 2026-05-05 18:24 | 49.89216 | 9.39737 | 26836 ft | 458 kts | 8° |
| 2026-05-05 18:24 | 49.92274 | 9.40328 | 27306 ft | 455 kts | 8° |
| 2026-05-05 18:24 | 49.95387 | 9.40939 | 27462 ft | 460 kts | 9° |
| 2026-05-05 18:24 | 49.98100 | 9.41496 | 27741 ft | 461 kts | 9° |
| 2026-05-05 18:25 | 50.01488 | 9.42193 | 28029 ft | 463 kts | 9° |
| 2026-05-05 18:25 | 50.03597 | 9.42625 | 28168 ft | 465 kts | 9° |
| 2026-05-05 18:25 | 50.07813 | 9.43485 | 28527 ft | 467 kts | 9° |
| 2026-05-05 18:25 | 50.10700 | 9.44075 | 28722 ft | 469 kts | 9° |
| 2026-05-05 18:26 | 50.13279 | 9.44642 | 28935 ft | 470 kts | 10° |
| 2026-05-05 18:26 | 50.17941 | 9.45720 | 29303 ft | 471 kts | 10° |
| 2026-05-05 18:26 | 50.21063 | 9.46436 | 29582 ft | 471 kts | 10° |
| 2026-05-05 18:26 | 50.24248 | 9.47160 | 29817 ft | 472 kts | 10° |
| 2026-05-05 18:27 | 50.27425 | 9.47882 | 30123 ft | 472 kts | 10° |
| 2026-05-05 18:27 | 50.30578 | 9.48598 | 30376 ft | 472 kts | 10° |
| 2026-05-05 18:27 | 50.33789 | 9.49327 | 30626 ft | 473 kts | 10° |
| 2026-05-05 18:27 | 50.36986 | 9.50053 | 30898 ft | 472 kts | 10° |
| 2026-05-05 18:28 | 50.43272 | 9.51481 | 31402 ft | 473 kts | 10° |
| 2026-05-05 18:28 | 50.46532 | 9.52222 | 31644 ft | 473 kts | 9° |
| 2026-05-05 18:28 | 50.49743 | 9.52953 | 31905 ft | 473 kts | 9° |
| 2026-05-05 18:29 | 50.52913 | 9.53674 | 32151 ft | 473 kts | 9° |
| 2026-05-05 18:29 | 50.56159 | 9.54414 | 32370 ft | 474 kts | 9° |
| 2026-05-05 18:29 | 50.59398 | 9.55153 | 32625 ft | 473 kts | 9° |
| 2026-05-05 18:29 | 50.62635 | 9.55891 | 32796 ft | 475 kts | 9° |
| 2026-05-05 18:30 | 50.69025 | 9.57353 | 32803 ft | 472 kts | 9° |
| 2026-05-05 18:30 | 50.75464 | 9.58829 | 32837 ft | 472 kts | 9° |
| 2026-05-05 18:31 | 50.78716 | 9.59576 | 33057 ft | 472 kts | 9° |
| 2026-05-05 18:31 | 50.81969 | 9.60324 | 33263 ft | 474 kts | 9° |
| 2026-05-05 18:31 | 50.85216 | 9.61072 | 33488 ft | 476 kts | 9° |
| 2026-05-05 18:31 | 50.88454 | 9.61819 | 33818 ft | 475 kts | 8° |
| 2026-05-05 18:32 | 50.91725 | 9.62574 | 34026 ft | 478 kts | 8° |
| 2026-05-05 18:32 | 50.94979 | 9.63326 | 34357 ft | 477 kts | 8° |
| 2026-05-05 18:32 | 50.98282 | 9.64089 | 34695 ft | 476 kts | 8° |
| 2026-05-05 18:32 | 51.01543 | 9.64843 | 34993 ft | 476 kts | 8° |
| 2026-05-05 18:33 | 51.04767 | 9.65587 | 35335 ft | 474 kts | 8° |
| 2026-05-05 18:33 | 51.08020 | 9.66336 | 35647 ft | 473 kts | 8° |
| 2026-05-05 18:33 | 51.11133 | 9.67053 | 35941 ft | 472 kts | 8° |
| 2026-05-05 18:33 | 51.14440 | 9.67817 | 36239 ft | 471 kts | 8° |
| 2026-05-05 18:34 | 51.17655 | 9.68562 | 36488 ft | 471 kts | 8° |
| 2026-05-05 18:34 | 51.20880 | 9.69310 | 36742 ft | 470 kts | 8° |
| 2026-05-05 18:34 | 51.24128 | 9.70066 | 36995 ft | 470 kts | 7° |
| 2026-05-05 18:34 | 51.27299 | 9.70806 | 37252 ft | 469 kts | 7° |
| 2026-05-05 18:35 | 51.30518 | 9.71558 | 37474 ft | 468 kts | 7° |
| 2026-05-05 18:35 | 51.33683 | 9.72299 | 37736 ft | 467 kts | 7° |
| 2026-05-05 18:35 | 51.40099 | 9.73806 | 37803 ft | 467 kts | 7° |
| 2026-05-05 18:36 | 51.46482 | 9.75311 | 37804 ft | 462 kts | 7° |
| 2026-05-05 18:36 | 51.52802 | 9.76806 | 37805 ft | 462 kts | 7° |
| 2026-05-05 18:37 | 51.59159 | 9.78314 | 37864 ft | 463 kts | 7° |
| 2026-05-05 18:37 | 51.65503 | 9.79824 | 37941 ft | 463 kts | 7° |
| 2026-05-05 18:38 | 51.71681 | 9.81300 | 37998 ft | 464 kts | 7° |
| 2026-05-05 18:38 | 51.78083 | 9.82835 | 37999 ft | 464 kts | 7° |
| 2026-05-05 18:39 | 51.84374 | 9.84346 | 38000 ft | 464 kts | 7° |
| 2026-05-05 18:39 | 51.90726 | 9.85878 | 37991 ft | 463 kts | 6° |
| 2026-05-05 18:40 | 51.97022 | 9.87400 | 37983 ft | 463 kts | 6° |
| 2026-05-05 18:40 | 52.03330 | 9.88930 | 37974 ft | 464 kts | 6° |
| 2026-05-05 18:41 | 52.09723 | 9.90483 | 37091 ft | 477 kts | 7° |
| 2026-05-05 18:41 | 52.12653 | 9.91196 | 36399 ft | 479 kts | 7° |
| 2026-05-05 18:41 | 52.15574 | 9.91909 | 35707 ft | 481 kts | 7° |
| 2026-05-05 18:42 | 52.18399 | 9.92598 | 34985 ft | 483 kts | 7° |
| 2026-05-05 18:42 | 52.21939 | 9.93464 | 34289 ft | 481 kts | 7° |
| 2026-05-05 18:42 | 52.25389 | 9.94308 | 33618 ft | 480 kts | 7° |
| 2026-05-05 18:42 | 52.28662 | 9.95111 | 32976 ft | 478 kts | 7° |
| 2026-05-05 18:43 | 52.31883 | 9.95904 | 32341 ft | 476 kts | 7° |
| 2026-05-05 18:43 | 52.35093 | 9.96696 | 31715 ft | 474 kts | 7° |
| 2026-05-05 18:43 | 52.38300 | 9.97487 | 31093 ft | 471 kts | 7° |
| 2026-05-05 18:43 | 52.41407 | 9.98160 | 30756 ft | 460 kts | 4° |
| 2026-05-05 18:44 | 52.44577 | 9.98630 | 30429 ft | 451 kts | 2° |
| 2026-05-05 18:44 | 52.47657 | 9.99050 | 29906 ft | 447 kts | 2° |
| 2026-05-05 18:44 | 52.50641 | 9.99479 | 29479 ft | 441 kts | 2° |
| 2026-05-05 18:44 | 52.53662 | 9.99930 | 28987 ft | 437 kts | 3° |
| 2026-05-05 18:45 | 52.56601 | 10.00377 | 28512 ft | 432 kts | 3° |
| 2026-05-05 18:45 | 52.59557 | 10.00831 | 28034 ft | 428 kts | 2° |
| 2026-05-05 18:45 | 52.62454 | 10.01281 | 27571 ft | 423 kts | 2° |
| 2026-05-05 18:45 | 52.65314 | 10.01729 | 27103 ft | 419 kts | 2° |
| 2026-05-05 18:46 | 52.68200 | 10.02184 | 26454 ft | 420 kts | 2° |
| 2026-05-05 18:46 | 52.71072 | 10.02635 | 25516 ft | 428 kts | 3° |
| 2026-05-05 18:46 | 52.74060 | 10.03109 | 24731 ft | 430 kts | 3° |
| 2026-05-05 18:46 | 52.76996 | 10.03581 | 24001 ft | 430 kts | 3° |
| 2026-05-05 18:47 | 52.79959 | 10.04061 | 23363 ft | 426 kts | 3° |
| 2026-05-05 18:47 | 52.82874 | 10.04533 | 22552 ft | 428 kts | 3° |
| 2026-05-05 18:47 | 52.85824 | 10.05010 | 21807 ft | 426 kts | 3° |
| 2026-05-05 18:47 | 52.88735 | 10.05484 | 21171 ft | 422 kts | 3° |
| 2026-05-05 18:48 | 52.91598 | 10.05950 | 20511 ft | 418 kts | 3° |
| 2026-05-05 18:48 | 52.94441 | 10.06412 | 19893 ft | 413 kts | 3° |
| 2026-05-05 18:48 | 52.97266 | 10.06872 | 19253 ft | 409 kts | 3° |
| 2026-05-05 18:48 | 53.00061 | 10.07328 | 18639 ft | 404 kts | 3° |
| 2026-05-05 18:49 | 53.02827 | 10.07780 | 18018 ft | 399 kts | 3° |
| 2026-05-05 18:49 | 53.05597 | 10.08234 | 17379 ft | 395 kts | 3° |
| 2026-05-05 18:49 | 53.08285 | 10.08673 | 16774 ft | 391 kts | 3° |
| 2026-05-05 18:49 | 53.10949 | 10.09109 | 16159 ft | 387 kts | 3° |
| 2026-05-05 18:50 | 53.13619 | 10.09546 | 15543 ft | 382 kts | 3° |
| 2026-05-05 18:50 | 53.16231 | 10.09973 | 14934 ft | 378 kts | 3° |
| 2026-05-05 18:50 | 53.18799 | 10.10394 | 14330 ft | 374 kts | 3° |
| 2026-05-05 18:50 | 53.21380 | 10.10818 | 13717 ft | 370 kts | 3° |
| 2026-05-05 18:51 | 53.23915 | 10.11234 | 13121 ft | 366 kts | 3° |
| 2026-05-05 18:51 | 53.26399 | 10.11642 | 12517 ft | 363 kts | 3° |
| 2026-05-05 18:51 | 53.28893 | 10.12052 | 11930 ft | 358 kts | 3° |
| 2026-05-05 18:51 | 53.31355 | 10.12458 | 11429 ft | 352 kts | 3° |
| 2026-05-05 18:52 | 53.33758 | 10.12854 | 10928 ft | 346 kts | 4° |
| 2026-05-05 18:52 | 53.36100 | 10.13154 | 10447 ft | 339 kts | 357° |
| 2026-05-05 18:52 | 53.38298 | 10.12431 | 10256 ft | 308 kts | 335° |
| 2026-05-05 18:52 | 53.39972 | 10.10493 | 10076 ft | 283 kts | 311° |
| 2026-05-05 18:53 | 53.40967 | 10.07721 | 9435 ft | 280 kts | 288° |
| 2026-05-05 18:53 | 53.41434 | 10.04576 | 8835 ft | 276 kts | 283° |
| 2026-05-05 18:53 | 53.41842 | 10.01454 | 8154 ft | 277 kts | 283° |
| 2026-05-05 18:53 | 53.42250 | 9.98321 | 7504 ft | 276 kts | 283° |
| 2026-05-05 18:54 | 53.42649 | 9.95196 | 6861 ft | 275 kts | 283° |
| 2026-05-05 18:54 | 53.43041 | 9.92054 | 6221 ft | 274 kts | 283° |
| 2026-05-05 18:54 | 53.43415 | 9.88984 | 5600 ft | 273 kts | 283° |
| 2026-05-05 18:54 | 53.43786 | 9.85857 | 4981 ft | 271 kts | 283° |
| 2026-05-05 18:55 | 53.44141 | 9.82783 | 4442 ft | 266 kts | 283° |
| 2026-05-05 18:55 | 53.44464 | 9.79877 | 4312 ft | 247 kts | 283° |
| 2026-05-05 18:55 | 53.44774 | 9.77050 | 3963 ft | 243 kts | 284° |
| 2026-05-05 18:55 | 53.45399 | 9.74475 | 3657 ft | 235 kts | 311° |
| 2026-05-05 18:56 | 53.46627 | 9.72855 | 3370 ft | 225 kts | 343° |
| 2026-05-05 18:56 | 53.48137 | 9.72607 | 3082 ft | 215 kts | 15° |
| 2026-05-05 18:56 | 53.49518 | 9.73434 | 3031 ft | 212 kts | 26° |
| 2026-05-05 18:56 | 53.50796 | 9.74637 | 3012 ft | 211 kts | 39° |
| 2026-05-05 18:57 | 53.51795 | 9.76329 | 3007 ft | 196 kts | 46° |
| 2026-05-05 18:57 | 53.52679 | 9.77980 | 2923 ft | 185 kts | 48° |
| 2026-05-05 18:57 | 53.53498 | 9.79608 | 2710 ft | 178 kts | 49° |
| 2026-05-05 18:57 | 53.54274 | 9.81161 | 2447 ft | 173 kts | 50° |
| 2026-05-05 18:58 | 53.55032 | 9.82684 | 2215 ft | 167 kts | 50° |
| 2026-05-05 18:58 | 53.55769 | 9.84158 | 2007 ft | 158 kts | 50° |
| 2026-05-05 18:58 | 53.56450 | 9.85531 | 1773 ft | 150 kts | 51° |
| 2026-05-05 18:58 | 53.57094 | 9.86831 | 1588 ft | 140 kts | 49° |
| 2026-05-05 18:59 | 53.57715 | 9.88078 | 1488 ft | 143 kts | 51° |
| 2026-05-05 18:59 | 53.58372 | 9.89405 | 1207 ft | 146 kts | 50° |
| 2026-05-05 18:59 | 53.58997 | 9.90662 | 1002 ft | 135 kts | 50° |
| 2026-05-05 18:59 | 53.59604 | 9.91867 | 827 ft | 139 kts | 51° |
| 2026-05-05 19:00 | 53.60215 | 9.93109 | 638 ft | 136 kts | 51° |
| 2026-05-05 19:00 | 53.60816 | 9.94335 | 461 ft | 135 kts | 49° |
| 2026-05-05 19:00 | 53.61417 | 9.95547 | 272 ft | 135 kts | 50° |
| 2026-05-05 19:00 | 53.62022 | 9.96771 | 69 ft | 132 kts | 50° |
| 2026-05-05 19:01 | 53.62503 | 9.97751 | 63 ft | 84 kts | 51° |
| 2026-05-05 19:01 | 53.62817 | 9.98385 | 62 ft | 62 kts | 50° |
| 2026-05-05 19:01 | 53.63070 | 9.98897 | 62 ft | 50 kts | 50° |
| 2026-05-05 19:01 | 53.63260 | 9.99286 | 62 ft | 25 kts | 57° |
| 2026-05-05 19:02 | 53.63289 | 9.99526 | 62 ft | 17 kts | 97° |
| 2026-05-05 19:02 | 53.63280 | 9.99630 | 62 ft | 6 kts | 98° |
| 2026-05-05 19:02 | 53.63276 | 9.99690 | 62 ft | 3 kts | 98° |
| 2026-05-05 19:02 | 53.63275 | 9.99700 | 62 ft | 0 kts | 97° |
| 2026-05-05 19:04 | 53.63274 | 9.99728 | 62 ft | 4 kts | 85° |
| 2026-05-05 19:04 | 53.63298 | 9.99795 | 62 ft | 8 kts | 51° |
| 2026-05-05 19:04 | 53.63338 | 9.99875 | 62 ft | 7 kts | 50° |
| 2026-05-05 19:04 | 53.63364 | 9.99928 | 62 ft | 5 kts | 50° |
| 2026-05-05 19:05 | 53.63393 | 9.99986 | 62 ft | 8 kts | 50° |
| 2026-05-05 19:05 | 53.63434 | 10.00070 | 62 ft | 9 kts | 50° |
| 2026-05-05 19:05 | 53.63460 | 10.00151 | 62 ft | 7 kts | 95° |
| 2026-05-05 19:05 | 53.63413 | 10.00220 | 62 ft | 11 kts | 172° |
| 2026-05-05 19:06 | 53.63334 | 10.00232 | 62 ft | 10 kts | 175° |
| 2026-05-05 19:06 | 53.63294 | 10.00275 | 62 ft | 7 kts | 92° |
| 2026-05-05 19:06 | 53.63296 | 10.00350 | 62 ft | 3 kts | 85° |
| 2026-05-05 19:06 | 53.63296 | 10.00356 | 62 ft | 0 kts | 85° |